createdAt,value
2019-03-22T00:01:39.510Z,32.83
2019-03-22T00:04:10.337Z,31.47
2019-03-22T00:06:41.185Z,34.53
2019-03-22T00:09:12.005Z,34.13
2019-03-22T00:11:42.810Z,37.03
2019-03-22T00:14:13.592Z,38.60
2019-03-22T00:16:44.390Z,37.13
2019-03-22T00:19:15.190Z,37.43
2019-03-22T00:21:45.971Z,36.13
2019-03-22T00:24:17.755Z,36.20
2019-03-22T00:26:48.601Z,36.70
2019-03-22T00:29:19.385Z,40.30
2019-03-22T00:31:50.594Z,37.67
2019-03-22T00:34:21.392Z,39.40
2019-03-22T00:36:52.250Z,44.13
2019-03-22T00:39:22.997Z,43.03
2019-03-22T00:41:54.368Z,45.00
2019-03-22T00:44:25.161Z,43.57
2019-03-22T00:46:58.849Z,45.40
2019-03-22T00:49:29.686Z,44.27
2019-03-22T00:52:00.512Z,43.97
2019-03-22T00:54:31.350Z,42.77
2019-03-22T00:57:02.183Z,43.70
2019-03-22T00:59:33.064Z,45.63
2019-03-22T01:02:03.857Z,44.87
2019-03-22T01:04:34.667Z,47.20
2019-03-22T01:07:05.455Z,48.27
2019-03-22T01:09:36.303Z,47.93
2019-03-22T01:12:07.060Z,47.03
2019-03-22T01:14:37.947Z,46.50
2019-03-22T01:17:08.746Z,46.50
2019-03-22T01:19:39.942Z,46.80
2019-03-22T01:22:11.038Z,46.43
2019-03-22T01:24:41.846Z,46.50
2019-03-22T01:27:12.944Z,48.10
2019-03-22T01:29:43.718Z,48.20
2019-03-22T01:32:14.572Z,48.33
2019-03-22T01:34:45.405Z,48.40
2019-03-22T01:37:16.692Z,48.10
2019-03-22T01:39:47.563Z,49.60
2019-03-22T01:42:18.896Z,49.63
2019-03-22T01:44:49.829Z,50.07
2019-03-22T01:47:21.075Z,51.03
2019-03-22T01:49:52.629Z,50.37
2019-03-22T01:52:23.767Z,52.13
2019-03-22T01:54:54.578Z,49.77
2019-03-22T01:57:25.645Z,54.23
2019-03-22T01:59:56.453Z,51.77
2019-03-22T02:02:27.534Z,55.33
2019-03-22T02:04:58.720Z,53.97
2019-03-22T02:07:29.833Z,61.30
2019-03-22T02:10:00.653Z,58.53
2019-03-22T02:12:31.487Z,57.47
2019-03-22T02:15:02.552Z,56.13
2019-03-22T02:17:33.369Z,58.60
2019-03-22T02:20:04.715Z,54.90
2019-03-22T02:22:35.501Z,60.10
2019-03-22T02:25:07.307Z,57.47
2019-03-22T02:27:38.168Z,58.37
2019-03-22T02:30:09.507Z,56.83
2019-03-22T02:32:40.327Z,56.63
2019-03-22T02:35:27.002Z,54.87
2019-03-22T02:37:44.239Z,56.33
2019-03-22T02:40:15.385Z,57.60
2019-03-22T02:42:46.988Z,54.37
2019-03-22T02:45:17.911Z,56.53
2019-03-22T02:47:48.695Z,53.33
2019-03-22T02:50:20.553Z,52.93
2019-03-22T02:52:51.596Z,52.47
2019-03-22T02:55:22.416Z,52.83
2019-03-22T02:57:53.597Z,52.13
2019-03-22T03:00:24.415Z,52.60
2019-03-22T03:02:55.509Z,50.10
2019-03-22T03:05:27.096Z,50.60
2019-03-22T03:07:57.954Z,47.73
2019-03-22T03:10:28.791Z,52.97
2019-03-22T03:12:59.615Z,54.50
2019-03-22T03:15:30.758Z,51.40
2019-03-22T03:18:01.591Z,52.77
2019-03-22T03:20:32.437Z,50.13
2019-03-22T03:23:03.537Z,52.57
2019-03-22T03:25:34.325Z,51.47
2019-03-22T03:28:05.154Z,52.97
2019-03-22T03:30:35.991Z,53.43
2019-03-22T03:33:06.840Z,52.90
2019-03-22T03:35:37.635Z,51.63
2019-03-22T03:38:08.446Z,54.17
2019-03-22T03:40:39.442Z,55.27
2019-03-22T03:43:10.203Z,55.47
2019-03-22T03:45:41.457Z,54.30
2019-03-22T03:48:12.199Z,53.07
2019-03-22T03:50:43.026Z,54.80
2019-03-22T03:53:13.871Z,51.00
2019-03-22T03:55:44.726Z,55.73
2019-03-22T03:58:15.601Z,55.60
2019-03-22T04:00:46.695Z,54.33
2019-03-22T04:03:17.540Z,56.20
2019-03-22T04:05:48.351Z,56.23
2019-03-22T04:08:19.159Z,55.23
2019-03-22T04:10:49.984Z,56.53
2019-03-22T04:13:20.789Z,55.57
2019-03-22T04:15:51.694Z,56.27
2019-03-22T04:18:22.499Z,58.53
2019-03-22T04:20:53.703Z,55.07
2019-03-22T04:23:24.503Z,55.83
2019-03-22T04:25:55.314Z,57.50
2019-03-22T04:28:26.133Z,57.30
2019-03-22T04:30:56.962Z,58.70
2019-03-22T04:33:27.799Z,55.70
2019-03-22T04:35:58.570Z,55.17
2019-03-22T04:38:29.385Z,55.17
2019-03-22T04:41:00.926Z,55.67
2019-03-22T04:43:31.692Z,56.00
2019-03-22T04:46:02.769Z,59.63
2019-03-22T04:48:35.469Z,59.47
2019-03-22T04:51:08.330Z,57.07
2019-03-22T04:53:46.899Z,57.53
2019-03-22T04:56:20.527Z,59.47
2019-03-22T04:58:51.925Z,60.17
2019-03-22T05:01:24.224Z,58.83
2019-03-22T05:03:55.194Z,59.40
2019-03-22T05:06:26.677Z,58.93
2019-03-22T05:09:00.431Z,57.03
2019-03-22T05:11:31.573Z,53.10
2019-03-22T05:14:03.577Z,56.67
2019-03-22T05:16:37.896Z,57.17
2019-03-22T05:19:11.115Z,57.30
2019-03-22T05:21:43.019Z,57.27
2019-03-22T05:24:18.076Z,54.03
2019-03-22T05:26:50.501Z,58.03
2019-03-22T05:29:30.663Z,57.70
2019-03-22T05:32:13.314Z,62.10
2019-03-22T05:34:44.125Z,57.53
2019-03-22T05:37:14.962Z,57.27
2019-03-22T05:39:45.898Z,55.90
2019-03-22T05:42:16.706Z,53.80
2019-03-22T05:44:47.592Z,56.00
2019-03-22T05:47:18.842Z,56.97
2019-03-22T05:49:50.088Z,58.50
2019-03-22T05:52:20.992Z,57.97
2019-03-22T05:54:51.844Z,59.30
2019-03-22T05:57:23.110Z,54.63
2019-03-22T05:59:54.326Z,54.60
2019-03-22T06:02:25.146Z,55.77
2019-03-22T06:04:56.349Z,59.20
2019-03-22T06:07:27.224Z,59.37
2019-03-22T06:09:58.068Z,56.37
2019-03-22T06:12:28.860Z,57.03
2019-03-22T06:15:00.048Z,53.53
2019-03-22T06:17:31.294Z,57.93
2019-03-22T06:20:02.170Z,60.80
2019-03-22T06:22:32.990Z,55.87
2019-03-22T06:25:03.958Z,58.40
2019-03-22T06:27:34.763Z,59.30
2019-03-22T06:30:07.914Z,62.60
2019-03-22T06:32:38.873Z,58.30
2019-03-22T06:35:10.307Z,61.03
2019-03-22T06:37:41.212Z,58.87
2019-03-22T06:40:12.490Z,57.07
2019-03-22T06:42:43.481Z,56.20
2019-03-22T06:45:14.416Z,58.47
2019-03-22T06:47:45.243Z,52.87
2019-03-22T06:50:16.174Z,57.50
2019-03-22T06:52:47.413Z,53.30
2019-03-22T06:55:18.363Z,52.90
2019-03-22T06:57:49.200Z,58.83
2019-03-22T07:00:20.086Z,53.83
2019-03-22T07:02:51.390Z,51.93
2019-03-22T07:05:22.261Z,51.87
2019-03-22T07:07:53.391Z,52.50
2019-03-22T07:10:24.381Z,52.10
2019-03-22T07:12:55.245Z,51.77
2019-03-22T07:15:26.429Z,51.83
2019-03-22T07:17:57.437Z,53.10
2019-03-22T07:20:28.325Z,52.30
2019-03-22T07:22:59.119Z,49.37
2019-03-22T07:25:29.936Z,46.77
2019-03-22T07:28:00.819Z,50.73
2019-03-22T07:30:31.664Z,52.37
2019-03-22T07:33:02.477Z,48.90
2019-03-22T07:35:33.329Z,51.53
2019-03-22T07:38:04.276Z,52.83
2019-03-22T07:40:35.088Z,53.27
2019-03-22T07:43:06.468Z,51.07
2019-03-22T07:45:37.287Z,51.33
2019-03-22T07:48:08.422Z,51.90
2019-03-22T07:50:39.585Z,52.40
2019-03-22T07:53:10.421Z,50.00
2019-03-22T07:55:41.166Z,52.13
2019-03-22T07:58:11.962Z,52.93
2019-03-22T08:00:42.802Z,51.90
2019-03-22T08:03:13.712Z,52.80
2019-03-22T08:05:51.051Z,53.83
2019-03-22T08:08:17.486Z,51.73
2019-03-22T08:10:48.440Z,54.00
2019-03-22T08:13:19.295Z,54.13
2019-03-22T08:15:50.138Z,53.77
2019-03-22T08:18:20.913Z,55.77
2019-03-22T08:20:52.200Z,52.40
2019-03-22T08:23:23.722Z,52.33
2019-03-22T08:25:54.526Z,52.27
2019-03-22T08:28:25.708Z,51.53
2019-03-22T08:30:57.112Z,49.03
2019-03-22T08:33:27.995Z,50.10
2019-03-22T08:35:58.883Z,50.17
2019-03-22T08:38:29.790Z,51.73
2019-03-22T08:41:00.649Z,51.33
2019-03-22T08:43:31.521Z,48.70
2019-03-22T08:46:02.378Z,50.47
2019-03-22T08:48:33.549Z,49.60
2019-03-22T08:51:04.705Z,49.00
2019-03-22T08:53:35.765Z,45.93
2019-03-22T08:56:06.713Z,43.77
2019-03-22T08:58:37.974Z,44.17
2019-03-22T09:01:08.856Z,45.17
2019-03-22T09:03:39.755Z,47.77
2019-03-22T09:06:10.608Z,46.13
2019-03-22T09:08:41.441Z,47.13
2019-03-22T09:11:12.309Z,46.23
2019-03-22T09:13:43.566Z,46.03
2019-03-22T09:16:14.535Z,46.93
2019-03-22T09:18:45.522Z,46.07
2019-03-22T09:21:16.427Z,47.70
2019-03-22T09:23:47.168Z,49.27
2019-03-22T09:26:19.976Z,49.43
2019-03-22T09:28:51.295Z,45.57
2019-03-22T09:31:22.578Z,45.27
2019-03-22T09:33:53.329Z,45.87
2019-03-22T09:36:24.196Z,45.07
2019-03-22T09:38:55.023Z,44.53
2019-03-22T09:41:26.259Z,44.40
2019-03-22T09:43:57.476Z,43.80
2019-03-22T09:46:28.821Z,43.73
2019-03-22T09:48:59.668Z,43.80
2019-03-22T09:51:30.800Z,44.10
2019-03-22T09:54:01.850Z,42.27
2019-03-22T09:56:32.791Z,42.97
2019-03-22T09:59:03.942Z,42.73
2019-03-22T10:01:34.774Z,43.47
2019-03-22T10:04:05.700Z,40.03
2019-03-22T10:06:36.561Z,43.67
2019-03-22T10:09:08.866Z,41.10
2019-03-22T10:11:39.744Z,40.63
2019-03-22T10:14:11.125Z,40.53
2019-03-22T10:16:41.961Z,39.77
2019-03-22T10:19:13.168Z,39.03
2019-03-22T10:21:43.980Z,35.47
2019-03-22T10:24:14.835Z,37.90
2019-03-22T10:26:45.708Z,37.13
2019-03-22T10:29:16.526Z,35.43
2019-03-22T10:31:47.845Z,34.77
2019-03-22T10:34:19.070Z,34.30
2019-03-22T10:36:49.902Z,33.63
2019-03-22T10:39:20.751Z,35.60
2019-03-22T10:41:51.598Z,35.27
2019-03-22T10:44:22.743Z,35.93
2019-03-22T10:46:53.510Z,34.53
2019-03-22T10:49:24.442Z,33.43
2019-03-22T10:51:57.707Z,33.60
2019-03-22T10:54:27.729Z,33.53
2019-03-22T10:56:58.565Z,34.53
2019-03-22T10:59:29.570Z,33.53
2019-03-22T11:02:03.596Z,33.37
2019-03-22T11:04:32.969Z,32.67
2019-03-22T11:07:03.817Z,30.97
2019-03-22T11:09:35.013Z,32.77
2019-03-22T11:12:12.167Z,32.53
2019-03-22T11:14:38.721Z,31.73
2019-03-22T11:17:09.945Z,31.50
2019-03-22T11:19:41.111Z,31.17
2019-03-22T11:22:11.987Z,30.17
2019-03-22T11:24:42.834Z,29.13
2019-03-22T11:27:13.836Z,29.20
2019-03-22T11:29:44.843Z,30.20
2019-03-22T11:32:15.781Z,31.23
2019-03-22T11:34:46.657Z,29.07
2019-03-22T11:37:17.924Z,30.53
2019-03-22T11:39:48.871Z,31.67
2019-03-22T11:42:20.035Z,30.73
2019-03-22T11:44:50.948Z,32.43
2019-03-22T11:47:22.288Z,32.60
2019-03-22T11:49:53.224Z,31.73
2019-03-22T11:52:23.986Z,31.80
2019-03-22T11:54:54.870Z,30.27
2019-03-22T11:57:26.034Z,31.03
2019-03-22T11:59:56.906Z,30.33
2019-03-22T12:02:28.044Z,30.53
2019-03-22T12:04:59.162Z,28.50
2019-03-22T12:07:30.038Z,30.83
2019-03-22T12:10:00.954Z,29.90
2019-03-22T12:12:31.783Z,30.83
2019-03-22T12:15:03.357Z,30.67
2019-03-22T12:17:34.526Z,30.47
2019-03-22T12:20:07.244Z,30.90
2019-03-22T12:22:38.589Z,31.27
2019-03-22T12:25:10.768Z,29.63
2019-03-22T12:27:41.604Z,30.63
2019-03-22T12:30:14.624Z,30.37
2019-03-22T12:32:45.478Z,29.37
2019-03-22T12:35:16.880Z,31.60
2019-03-22T12:37:47.801Z,30.83
2019-03-22T12:40:19.800Z,30.80
2019-03-22T12:42:50.830Z,29.93
2019-03-22T12:45:23.316Z,30.50
2019-03-22T12:47:54.146Z,30.57
2019-03-22T12:50:25.622Z,30.80
2019-03-22T12:52:56.819Z,29.27
2019-03-22T12:55:27.659Z,31.07
2019-03-22T12:57:59.489Z,29.17
2019-03-22T13:00:30.811Z,30.17
2019-03-22T13:03:01.627Z,30.83
2019-03-22T13:05:32.894Z,32.40
2019-03-22T13:08:04.008Z,31.07
2019-03-22T13:10:34.858Z,31.80
2019-03-22T13:13:05.712Z,29.37
2019-03-22T13:15:36.437Z,31.47
2019-03-22T13:18:07.231Z,30.50
2019-03-22T13:20:38.392Z,29.00
2019-03-22T13:23:09.203Z,31.10
2019-03-22T13:25:40.013Z,31.47
2019-03-22T13:28:10.797Z,30.37
2019-03-22T13:30:41.998Z,31.30
2019-03-22T13:33:12.834Z,32.57
2019-03-22T13:35:43.647Z,33.50
2019-03-22T13:38:14.469Z,36.57
2019-03-22T13:40:45.364Z,41.00
2019-03-22T13:43:16.522Z,39.83
2019-03-22T13:45:47.728Z,42.03
2019-03-22T13:48:18.580Z,41.83
2019-03-22T13:50:49.665Z,42.60
2019-03-22T13:53:20.536Z,43.03
2019-03-22T13:55:51.706Z,41.67
2019-03-22T13:58:22.556Z,41.33
2019-03-22T14:00:53.358Z,42.97
2019-03-22T14:03:24.178Z,44.93
2019-03-22T14:05:55.379Z,45.03
2019-03-22T14:08:27.072Z,44.83
2019-03-22T14:10:57.926Z,43.67
2019-03-22T14:13:29.107Z,44.57
2019-03-22T14:15:59.925Z,42.93
2019-03-22T14:18:32.578Z,45.37
2019-03-22T14:21:03.895Z,44.53
2019-03-22T14:23:35.094Z,44.57
2019-03-22T14:26:06.295Z,47.20
2019-03-22T14:28:37.181Z,44.57
2019-03-22T14:31:08.017Z,44.03
2019-03-22T14:33:39.218Z,43.63
2019-03-22T14:36:10.324Z,44.97
2019-03-22T14:38:41.221Z,45.83
2019-03-22T14:41:12.032Z,45.57
2019-03-22T14:43:42.963Z,44.40
2019-03-22T14:46:14.183Z,46.07
2019-03-22T14:48:44.991Z,45.17
2019-03-22T14:51:15.844Z,45.53
2019-03-22T14:53:46.628Z,46.33
2019-03-22T14:56:17.456Z,46.07
2019-03-22T14:58:48.412Z,45.50
2019-03-22T15:01:19.553Z,45.07
2019-03-22T15:03:50.379Z,43.97
2019-03-22T15:06:21.679Z,46.37
2019-03-22T15:08:52.520Z,45.37
2019-03-22T15:11:23.992Z,43.67
2019-03-22T15:14:08.459Z,43.17
2019-03-22T15:17:06.631Z,44.03
2019-03-22T15:19:55.151Z,45.80
2019-03-22T15:22:52.995Z,47.83
2019-03-22T15:25:38.933Z,48.37
2019-03-22T15:28:27.525Z,49.70
2019-03-22T15:31:32.365Z,53.67
2019-03-22T15:34:20.923Z,52.97
2019-03-22T15:37:29.251Z,56.70
2019-03-22T15:40:03.958Z,59.93
2019-03-22T15:42:35.122Z,65.33
2019-03-22T15:45:07.811Z,61.53
2019-03-22T15:47:39.035Z,61.97
2019-03-22T15:50:12.441Z,62.90
2019-03-22T15:52:43.353Z,63.97
2019-03-22T15:55:14.274Z,65.20
2019-03-22T15:57:45.492Z,65.00
2019-03-22T16:00:18.268Z,61.47
2019-03-22T16:02:49.036Z,61.53
2019-03-22T16:05:20.188Z,60.90
2019-03-22T16:07:51.043Z,60.70
2019-03-22T16:10:22.050Z,59.90
2019-03-22T16:12:53.201Z,58.23
2019-03-22T16:15:24.012Z,58.67
2019-03-22T16:17:54.757Z,57.20
2019-03-22T16:20:25.782Z,59.30
2019-03-22T16:22:56.556Z,57.47
2019-03-22T16:25:27.422Z,58.17
2019-03-22T16:27:58.259Z,57.40
2019-03-22T16:30:29.475Z,59.03
2019-03-22T16:33:00.642Z,57.77
2019-03-22T16:35:31.899Z,57.93
2019-03-22T16:38:02.715Z,60.93
2019-03-22T16:40:33.547Z,64.43
2019-03-22T16:43:04.428Z,62.43
2019-03-22T16:45:37.374Z,65.07
2019-03-22T16:48:08.357Z,64.03
2019-03-22T16:50:39.210Z,61.13
2019-03-22T16:53:10.149Z,62.87
2019-03-22T16:55:41.358Z,60.27
2019-03-22T16:58:12.601Z,55.53
2019-03-22T17:00:43.770Z,51.83
2019-03-22T17:03:14.673Z,50.57
2019-03-22T17:05:45.530Z,50.00
2019-03-22T17:08:16.848Z,51.10
2019-03-22T17:10:48.118Z,50.13
2019-03-22T17:13:18.896Z,50.53
2019-03-22T17:15:49.909Z,52.53
2019-03-22T17:18:21.145Z,52.13
2019-03-22T17:20:52.055Z,52.67
2019-03-22T17:23:22.914Z,53.63
2019-03-22T17:25:53.817Z,52.53
2019-03-22T17:28:24.681Z,52.73
2019-03-22T17:30:55.494Z,52.90
2019-03-22T17:33:26.381Z,51.07
2019-03-22T17:35:58.078Z,51.00
2019-03-22T17:38:28.979Z,51.73
2019-03-22T17:40:59.895Z,49.80
2019-03-22T17:43:31.186Z,50.03
2019-03-22T17:46:02.447Z,52.03
2019-03-22T17:48:33.585Z,53.83
2019-03-22T17:51:05.183Z,49.37
2019-03-22T17:53:36.019Z,51.20
2019-03-22T17:56:06.889Z,51.40
2019-03-22T17:58:37.743Z,52.60
2019-03-22T18:01:08.595Z,52.63
2019-03-22T18:03:39.557Z,50.37
2019-03-22T18:06:10.361Z,53.50
2019-03-22T18:08:41.857Z,51.50
2019-03-22T18:11:12.841Z,49.17
2019-03-22T18:13:43.925Z,50.23
2019-03-22T18:16:14.812Z,50.03
2019-03-22T18:18:45.611Z,48.77
2019-03-22T18:21:16.780Z,49.50
2019-03-22T18:23:47.598Z,50.57
2019-03-22T18:26:18.801Z,50.83
2019-03-22T18:28:50.213Z,51.23
2019-03-22T18:31:20.970Z,50.73
2019-03-22T18:33:52.473Z,50.60
2019-03-22T18:36:23.273Z,50.40
2019-03-22T18:38:54.416Z,51.33
2019-03-22T18:41:25.594Z,49.07
2019-03-22T18:43:56.772Z,50.20
2019-03-22T18:46:27.608Z,52.37
2019-03-22T18:48:58.424Z,52.30
2019-03-22T18:51:29.278Z,52.00
2019-03-22T18:54:00.730Z,55.40
2019-03-22T18:56:31.517Z,55.80
2019-03-22T18:59:02.728Z,55.97
2019-03-22T19:01:33.552Z,52.70
2019-03-22T19:04:04.306Z,54.77
2019-03-22T19:06:35.094Z,56.37
2019-03-22T19:09:07.567Z,55.60
2019-03-22T19:11:38.357Z,54.73
2019-03-22T19:14:09.694Z,56.87
2019-03-22T19:16:40.839Z,57.90
2019-03-22T19:19:11.640Z,57.83
2019-03-22T19:21:42.739Z,58.27
2019-03-22T19:24:13.562Z,58.00
2019-03-22T19:26:44.833Z,53.53
2019-03-22T19:29:15.622Z,59.00
2019-03-22T19:31:46.717Z,57.60
2019-03-22T19:34:17.587Z,55.87
2019-03-22T19:36:48.743Z,57.90
2019-03-22T19:39:19.905Z,57.13
2019-03-22T19:41:50.962Z,56.97
2019-03-22T19:44:21.768Z,55.70
2019-03-22T19:46:52.642Z,55.93
2019-03-22T19:49:23.941Z,56.13
2019-03-22T19:51:55.117Z,55.60
2019-03-22T19:54:25.895Z,56.67
2019-03-22T19:56:56.757Z,57.37
2019-03-22T19:59:27.846Z,57.63
2019-03-22T20:01:59.019Z,58.37
2019-03-22T20:04:29.878Z,57.70
2019-03-22T20:07:01.081Z,59.03
2019-03-22T20:09:32.157Z,55.67
2019-03-22T20:12:03.129Z,59.00
2019-03-22T20:14:33.860Z,58.87
2019-03-22T20:17:04.673Z,59.30
2019-03-22T20:19:35.772Z,60.73
2019-03-22T20:22:06.562Z,62.33
2019-03-22T20:24:37.721Z,59.87
2019-03-22T20:27:08.518Z,60.43
2019-03-22T20:29:40.112Z,61.23
2019-03-22T20:32:10.839Z,58.33
2019-03-22T20:34:41.647Z,56.60
2019-03-22T20:37:14.028Z,57.23
2019-03-22T20:39:45.118Z,56.50
2019-03-22T20:42:15.875Z,56.87
2019-03-22T20:44:47.019Z,57.20
2019-03-22T20:47:17.791Z,57.80
2019-03-22T20:49:48.608Z,55.53
2019-03-22T20:52:19.376Z,53.97
2019-03-22T20:54:50.201Z,51.83
2019-03-22T20:57:21.047Z,51.50
2019-03-22T20:59:51.790Z,51.30
2019-03-22T21:02:23.124Z,51.60
2019-03-22T21:04:53.913Z,48.50
2019-03-22T21:07:25.080Z,49.03
2019-03-22T21:09:55.851Z,48.93
2019-03-22T21:12:27.066Z,45.90
2019-03-22T21:14:57.896Z,45.40
2019-03-22T21:17:28.652Z,45.10
2019-03-22T21:19:59.428Z,42.80
2019-03-22T21:22:30.150Z,41.93
2019-03-22T21:25:00.945Z,42.00
2019-03-22T21:27:31.746Z,38.20
2019-03-22T21:30:02.539Z,39.10
2019-03-22T21:32:44.462Z,39.43
2019-03-22T21:35:06.820Z,38.00
2019-03-22T21:37:37.669Z,37.83
2019-03-22T21:40:09.164Z,38.10
2019-03-22T21:42:39.988Z,38.73
2019-03-22T21:45:11.414Z,38.47
2019-03-22T21:47:42.285Z,39.43
2019-03-22T21:50:13.211Z,39.43
2019-03-22T21:52:44.047Z,41.47
2019-03-22T21:55:14.823Z,40.80
2019-03-22T21:57:45.964Z,39.27
2019-03-22T22:00:17.141Z,39.40
2019-03-22T22:02:47.895Z,41.10
2019-03-22T22:05:18.638Z,41.97
2019-03-22T22:07:49.449Z,38.53
2019-03-22T22:10:20.226Z,41.43
2019-03-22T22:12:51.067Z,41.33
2019-03-22T22:15:21.882Z,41.07
2019-03-22T22:17:53.403Z,38.23
2019-03-22T22:20:28.897Z,39.93
2019-03-22T22:22:58.719Z,38.23
2019-03-22T22:25:29.570Z,38.97
2019-03-22T22:28:00.449Z,38.43
2019-03-22T22:30:31.434Z,39.17
2019-03-22T22:33:02.239Z,37.97
2019-03-22T22:35:33.023Z,37.77
2019-03-22T22:38:03.811Z,37.90
2019-03-22T22:40:34.628Z,39.00
2019-03-22T22:43:05.400Z,38.30
2019-03-22T22:45:36.406Z,38.20
2019-03-22T22:48:07.223Z,36.93
2019-03-22T22:50:37.972Z,38.27
2019-03-22T22:53:08.682Z,38.73
2019-03-22T22:55:39.947Z,36.83
2019-03-22T22:58:10.752Z,34.83
2019-03-22T23:00:42.353Z,36.60
2019-03-22T23:03:13.249Z,37.90
2019-03-22T23:05:44.050Z,35.70
2019-03-22T23:08:14.779Z,37.73
2019-03-22T23:10:45.623Z,35.53
2019-03-22T23:13:16.398Z,37.60
2019-03-22T23:15:47.241Z,36.43
2019-03-22T23:18:18.004Z,33.23
2019-03-22T23:20:48.738Z,36.00
2019-03-22T23:23:19.959Z,37.57
2019-03-22T23:25:50.773Z,37.33
2019-03-22T23:28:21.580Z,37.23
2019-03-22T23:30:52.746Z,37.77
2019-03-22T23:33:23.527Z,37.10
2019-03-22T23:35:54.708Z,37.83
2019-03-22T23:38:26.603Z,38.50
2019-03-22T23:40:57.409Z,35.40
2019-03-22T23:43:28.321Z,36.40
2019-03-22T23:45:59.130Z,37.73
2019-03-22T23:48:29.976Z,39.07
2019-03-22T23:51:01.093Z,36.07
2019-03-22T23:53:31.860Z,38.33
2019-03-22T23:56:03.289Z,35.87
2019-03-22T23:58:34.089Z,35.53
